createdAt,value
2022-10-12T00:02:11.274Z,66.90
2022-10-12T00:04:38.103Z,67.90
2022-10-12T00:07:04.907Z,67.10
2022-10-12T00:09:31.778Z,67.10
2022-10-12T00:12:01.213Z,67.30
2022-10-12T00:14:27.950Z,67.30
2022-10-12T00:16:56.002Z,67.30
2022-10-12T00:19:22.718Z,67.30
2022-10-12T00:21:49.618Z,67.30
2022-10-12T00:24:16.360Z,67.40
2022-10-12T00:26:43.109Z,67.50
2022-10-12T00:29:10.159Z,67.50
2022-10-12T00:31:36.869Z,68.40
2022-10-12T00:34:04.284Z,67.50
2022-10-12T00:36:36.506Z,67.50
2022-10-12T00:39:06.414Z,67.40
2022-10-12T00:41:36.807Z,67.50
2022-10-12T00:44:03.794Z,67.50
2022-10-12T00:46:36.413Z,68.40
2022-10-12T00:49:35.665Z,67.60
2022-10-12T00:52:08.606Z,67.50
2022-10-12T00:54:41.193Z,67.70
2022-10-12T00:57:10.232Z,67.60
2022-10-12T00:59:43.310Z,67.70
2022-10-12T01:02:10.608Z,67.80
2022-10-12T01:04:38.991Z,67.80
2022-10-12T01:07:05.825Z,68.00
2022-10-12T01:09:33.284Z,67.90
2022-10-12T01:12:00.579Z,68.10
2022-10-12T01:14:27.416Z,68.10
2022-10-12T01:17:00.876Z,68.10
2022-10-12T01:19:40.005Z,68.20
2022-10-12T01:22:14.361Z,68.20
2022-10-12T01:24:49.284Z,68.20
2022-10-12T01:27:37.046Z,68.20
2022-10-12T01:30:16.879Z,68.20
2022-10-12T01:33:04.897Z,69.10
2022-10-12T01:35:40.620Z,68.20
2022-10-12T01:38:35.072Z,68.20
2022-10-12T01:41:14.188Z,68.30
2022-10-12T01:43:44.455Z,68.20
2022-10-12T01:46:17.141Z,68.30
2022-10-12T01:48:46.647Z,68.40
2022-10-12T01:51:19.083Z,68.50
2022-10-12T01:53:58.514Z,68.70
2022-10-12T01:56:36.156Z,68.70
2022-10-12T01:59:54.289Z,68.80
2022-10-12T02:02:35.661Z,68.70
2022-10-12T02:05:16.811Z,68.70
2022-10-12T02:07:55.582Z,68.70
2022-10-12T02:10:52.068Z,68.80
2022-10-12T02:13:22.444Z,69.00
2022-10-12T02:15:49.467Z,69.00
2022-10-12T02:18:19.394Z,69.10
2022-10-12T02:20:52.773Z,69.10
2022-10-12T02:23:23.894Z,69.20
2022-10-12T02:25:56.145Z,69.20
2022-10-12T02:28:26.373Z,69.10
2022-10-12T02:31:16.199Z,69.10
2022-10-12T02:34:15.600Z,69.20
2022-10-12T02:36:53.994Z,69.00
2022-10-12T02:39:28.398Z,69.10
2022-10-12T02:41:59.776Z,69.20
2022-10-12T02:44:31.728Z,69.20
2022-10-12T02:47:00.866Z,69.20
2022-10-12T02:49:30.840Z,69.30
2022-10-12T02:51:58.022Z,69.30
2022-10-12T02:54:28.019Z,69.30
2022-10-12T02:56:54.788Z,69.50
2022-10-12T02:59:21.622Z,69.50
2022-10-12T03:01:48.516Z,69.60
2022-10-12T03:04:18.560Z,69.70
2022-10-12T03:06:48.865Z,69.70
2022-10-12T03:09:15.756Z,69.70
2022-10-12T03:11:48.360Z,69.80
2022-10-12T03:14:16.971Z,69.80
2022-10-12T03:16:48.109Z,69.80
2022-10-12T03:19:17.729Z,69.80
2022-10-12T03:21:44.563Z,69.70
2022-10-12T03:24:12.505Z,69.80
2022-10-12T03:26:39.922Z,69.80
2022-10-12T03:29:06.635Z,69.70
2022-10-12T03:31:36.063Z,69.80
2022-10-12T03:34:03.253Z,69.80
2022-10-12T03:36:30.836Z,69.70
2022-10-12T03:38:57.661Z,69.80
2022-10-12T03:41:24.464Z,69.80
2022-10-12T03:43:51.248Z,69.90
2022-10-12T03:46:18.195Z,70.00
2022-10-12T03:48:46.001Z,70.00
2022-10-12T03:51:15.518Z,70.10
2022-10-12T03:53:45.538Z,70.00
2022-10-12T03:56:12.936Z,70.10
2022-10-12T03:58:39.789Z,70.10
2022-10-12T04:01:06.471Z,70.10
2022-10-12T04:03:35.559Z,70.20
2022-10-12T04:06:09.758Z,70.20
2022-10-12T04:08:36.439Z,70.10
2022-10-12T04:11:03.269Z,70.20
2022-10-12T04:13:32.839Z,70.10
2022-10-12T04:16:09.646Z,70.10
2022-10-12T04:18:36.790Z,70.20
2022-10-12T04:21:08.815Z,70.10
2022-10-12T04:23:35.518Z,70.20
2022-10-12T04:26:02.325Z,70.20
2022-10-12T04:28:29.298Z,70.20
2022-10-12T04:30:55.971Z,70.30
2022-10-12T04:33:22.778Z,70.30
2022-10-12T04:35:49.648Z,70.20
2022-10-12T04:38:16.684Z,70.20
2022-10-12T04:40:48.021Z,70.30
2022-10-12T04:43:18.073Z,70.40
2022-10-12T04:45:44.803Z,70.40
2022-10-12T04:48:11.523Z,70.30
2022-10-12T04:50:38.204Z,70.30
2022-10-12T04:53:04.969Z,70.40
2022-10-12T04:55:32.317Z,70.40
2022-10-12T04:58:00.842Z,70.40
2022-10-12T05:00:27.619Z,70.40
2022-10-12T05:02:54.405Z,70.30
2022-10-12T05:05:21.146Z,70.30
2022-10-12T05:07:47.835Z,70.40
2022-10-12T05:10:14.621Z,70.40
2022-10-12T05:12:42.644Z,70.40
2022-10-12T05:15:10.376Z,70.50
2022-10-12T05:17:37.437Z,70.60
2022-10-12T05:20:04.848Z,70.50
2022-10-12T05:22:31.986Z,70.50
2022-10-12T05:24:58.851Z,70.50
2022-10-12T05:27:25.670Z,70.50
2022-10-12T05:29:52.423Z,70.60
2022-10-12T05:32:19.368Z,70.60
2022-10-12T05:34:46.213Z,70.70
2022-10-12T05:37:12.987Z,70.80
2022-10-12T05:39:39.901Z,70.60
2022-10-12T05:42:08.899Z,70.70
2022-10-12T05:44:35.615Z,70.70
2022-10-12T05:47:02.773Z,70.80
2022-10-12T05:49:30.826Z,70.90
2022-10-12T05:51:57.521Z,70.90
2022-10-12T05:54:24.284Z,70.90
2022-10-12T05:56:51.086Z,70.90
2022-10-12T05:59:17.803Z,71.00
2022-10-12T06:01:44.622Z,71.00
2022-10-12T06:04:13.001Z,71.10
2022-10-12T06:06:39.849Z,71.20
2022-10-12T06:09:06.564Z,71.30
2022-10-12T06:11:36.606Z,72.10
2022-10-12T06:14:04.075Z,71.30
2022-10-12T06:16:31.052Z,71.30
2022-10-12T06:18:57.887Z,71.40
2022-10-12T06:21:39.996Z,71.50
2022-10-12T06:24:06.938Z,71.50
2022-10-12T06:26:33.795Z,71.60
2022-10-12T06:29:00.950Z,71.50
2022-10-12T06:31:29.034Z,71.70
2022-10-12T06:33:55.885Z,71.90
2022-10-12T06:36:25.626Z,71.70
2022-10-12T06:38:52.495Z,71.80
2022-10-12T06:41:19.231Z,71.80
2022-10-12T06:43:46.142Z,71.90
2022-10-12T06:46:17.126Z,72.00
2022-10-12T06:48:43.801Z,72.00
2022-10-12T06:51:13.304Z,72.00
2022-10-12T06:53:40.508Z,72.00
2022-10-12T06:56:08.854Z,72.10
2022-10-12T06:58:35.788Z,72.10
2022-10-12T07:01:12.634Z,72.00
2022-10-12T07:03:39.520Z,72.20
2022-10-12T07:06:11.683Z,72.10
2022-10-12T07:08:39.391Z,72.30
2022-10-12T07:11:08.180Z,72.30
2022-10-12T07:13:35.303Z,72.30
2022-10-12T07:16:07.425Z,72.30
2022-10-12T07:18:34.883Z,72.40
2022-10-12T07:21:04.811Z,72.50
2022-10-12T07:23:33.118Z,72.50
2022-10-12T07:26:03.020Z,72.60
2022-10-12T07:28:30.077Z,73.00
2022-10-12T07:31:04.853Z,72.60
2022-10-12T07:33:34.119Z,72.80
2022-10-12T07:36:21.987Z,72.70
2022-10-12T07:38:49.543Z,72.80
2022-10-12T07:41:17.318Z,72.90
2022-10-12T07:43:46.265Z,73.00
2022-10-12T07:46:13.265Z,73.00
2022-10-12T07:48:47.470Z,72.90
2022-10-12T07:51:16.777Z,73.00
2022-10-12T07:53:46.837Z,73.00
2022-10-12T07:56:17.017Z,73.10
2022-10-12T07:59:04.265Z,73.10
2022-10-12T08:01:31.967Z,73.10
2022-10-12T08:04:01.653Z,73.20
2022-10-12T08:06:31.423Z,73.20
2022-10-12T08:09:00.065Z,73.20
2022-10-12T08:11:27.048Z,73.50
2022-10-12T08:13:53.820Z,73.40
2022-10-12T08:16:21.847Z,73.30
2022-10-12T08:18:51.876Z,73.10
2022-10-12T08:21:19.588Z,72.00
2022-10-12T08:23:46.774Z,71.30
2022-10-12T08:26:18.525Z,70.90
2022-10-12T08:28:45.562Z,70.70
2022-10-12T08:31:15.271Z,70.10
2022-10-12T08:33:44.169Z,69.00
2022-10-12T08:36:14.784Z,68.90
2022-10-12T08:38:43.635Z,68.70
2022-10-12T08:41:31.896Z,68.70
2022-10-12T08:44:27.394Z,68.30
2022-10-12T08:47:12.676Z,68.10
2022-10-12T08:49:40.874Z,68.50
2022-10-12T08:52:22.682Z,68.70
2022-10-12T08:54:49.572Z,69.10
2022-10-12T08:57:18.658Z,69.40
2022-10-12T08:59:46.572Z,69.60
2022-10-12T09:02:44.290Z,69.60
2022-10-12T09:05:34.032Z,69.50
2022-10-12T09:08:11.743Z,69.10
2022-10-12T09:10:44.848Z,68.70
2022-10-12T09:13:40.935Z,68.30
2022-10-12T09:16:29.503Z,68.20
2022-10-12T09:19:01.474Z,67.30
2022-10-12T09:21:31.411Z,66.50
2022-10-12T09:24:01.617Z,65.90
2022-10-12T09:26:39.999Z,65.90
2022-10-12T09:29:27.650Z,65.90
2022-10-12T09:32:13.194Z,66.00
2022-10-12T09:34:40.412Z,66.30
2022-10-12T09:37:11.480Z,66.50
2022-10-12T09:39:46.736Z,66.60
2022-10-12T09:42:15.945Z,66.50
2022-10-12T09:44:48.017Z,66.40
2022-10-12T09:47:29.513Z,66.10
2022-10-12T09:49:58.771Z,66.10
2022-10-12T09:52:30.446Z,66.00
2022-10-12T09:55:19.611Z,65.90
2022-10-12T09:57:55.373Z,65.70
2022-10-12T10:00:27.661Z,65.70
2022-10-12T10:02:55.926Z,65.60
2022-10-12T10:05:29.127Z,65.30
2022-10-12T10:08:14.280Z,64.90
2022-10-12T10:10:57.796Z,64.60
2022-10-12T10:13:30.590Z,64.80
2022-10-12T10:16:09.221Z,64.60
2022-10-12T10:18:45.020Z,64.30
2022-10-12T10:21:37.913Z,64.40
2022-10-12T10:24:26.531Z,64.60
2022-10-12T10:26:58.115Z,64.20
2022-10-12T10:29:42.143Z,64.10
2022-10-12T10:32:31.545Z,63.80
2022-10-12T10:35:13.719Z,63.70
2022-10-12T10:37:55.731Z,63.60
2022-10-12T10:40:33.051Z,63.40
2022-10-12T10:43:04.946Z,63.80
2022-10-12T10:46:00.851Z,63.80
2022-10-12T10:48:51.100Z,63.50
2022-10-12T10:51:17.881Z,63.60
2022-10-12T10:53:48.005Z,63.20
2022-10-12T10:56:29.055Z,62.90
2022-10-12T10:58:58.169Z,62.40
2022-10-12T11:01:34.782Z,62.10
2022-10-12T11:04:27.589Z,61.80
2022-10-12T11:06:59.652Z,62.10
2022-10-12T11:09:38.903Z,61.80
2022-10-12T11:12:14.703Z,61.90
2022-10-12T11:14:50.859Z,61.50
2022-10-12T11:17:27.570Z,61.60
2022-10-12T11:20:33.383Z,61.60
2022-10-12T11:23:37.238Z,61.50
2022-10-12T11:26:14.952Z,61.20
2022-10-12T11:28:42.773Z,61.30
2022-10-12T11:31:24.560Z,61.20
2022-10-12T11:33:54.667Z,61.00
2022-10-12T11:36:24.486Z,60.70
2022-10-12T11:39:07.322Z,59.30
2022-10-12T11:41:45.005Z,59.80
2022-10-12T11:44:40.928Z,59.20
2022-10-12T11:47:21.178Z,59.40
2022-10-12T11:50:07.059Z,59.30
2022-10-12T11:52:40.389Z,59.50
2022-10-12T11:55:34.918Z,59.50
2022-10-12T11:58:24.426Z,59.50
2022-10-12T12:01:29.732Z,59.70
2022-10-12T12:04:40.423Z,59.60
2022-10-12T12:07:43.496Z,59.20
2022-10-12T12:10:31.012Z,58.90
2022-10-12T12:13:20.891Z,58.90
2022-10-12T12:15:47.571Z,58.90
2022-10-12T12:18:20.472Z,59.00
2022-10-12T12:20:47.830Z,58.70
2022-10-12T12:23:23.933Z,58.70
2022-10-12T12:26:28.866Z,58.70
2022-10-12T12:29:19.425Z,58.40
2022-10-12T12:31:59.284Z,58.90
2022-10-12T12:34:29.329Z,58.90
2022-10-12T12:36:58.514Z,58.60
2022-10-12T12:39:32.691Z,58.90
2022-10-12T12:42:04.870Z,58.90
2022-10-12T12:44:37.509Z,58.60
2022-10-12T12:47:26.132Z,58.70
2022-10-12T12:49:57.793Z,58.60
2022-10-12T12:52:24.922Z,58.90
2022-10-12T12:54:54.570Z,58.70
2022-10-12T12:57:49.010Z,58.20
2022-10-12T13:00:25.126Z,58.10
2022-10-12T13:03:13.180Z,58.10
2022-10-12T13:06:00.116Z,58.20
2022-10-12T13:08:46.273Z,58.00
2022-10-12T13:11:38.308Z,57.60
2022-10-12T13:14:20.434Z,57.40
2022-10-12T13:19:56.292Z,57.40
2022-10-12T13:22:35.145Z,57.50
2022-10-12T13:25:05.664Z,57.30
2022-10-12T13:27:50.370Z,57.50
2022-10-12T13:30:29.234Z,57.60
2022-10-12T13:33:09.696Z,57.40
2022-10-12T13:36:02.545Z,57.50
2022-10-12T13:38:30.410Z,57.60
2022-10-12T13:41:08.422Z,57.20
2022-10-12T13:43:45.691Z,57.20
2022-10-12T13:46:16.224Z,57.10
2022-10-12T13:48:59.656Z,57.10
2022-10-12T13:51:33.350Z,56.90
2022-10-12T13:54:18.259Z,57.00
2022-10-12T13:56:46.947Z,56.80
2022-10-12T13:59:23.035Z,56.90
2022-10-12T14:02:00.857Z,56.90
2022-10-12T14:04:32.910Z,56.90
2022-10-12T14:07:04.082Z,56.90
2022-10-12T14:09:41.559Z,56.90
2022-10-12T14:12:12.971Z,56.90
2022-10-12T14:14:42.910Z,56.90
2022-10-12T14:17:18.499Z,56.70
2022-10-12T14:19:46.645Z,56.90
2022-10-12T14:22:29.678Z,56.70
2022-10-12T14:25:15.840Z,56.30
2022-10-12T14:27:42.813Z,56.40
2022-10-12T14:30:22.495Z,56.10
2022-10-12T14:32:54.051Z,55.90
2022-10-12T14:35:29.198Z,55.90
2022-10-12T14:37:56.794Z,55.50
2022-10-12T14:40:44.957Z,55.30
2022-10-12T14:43:14.582Z,55.60
2022-10-12T14:45:41.544Z,55.70
2022-10-12T14:48:22.855Z,55.90
2022-10-12T14:50:50.121Z,56.00
2022-10-12T14:53:17.113Z,56.20
2022-10-12T14:55:44.151Z,56.30
2022-10-12T14:58:15.238Z,56.40
2022-10-12T15:00:42.722Z,56.50
2022-10-12T15:03:09.706Z,56.60
2022-10-12T15:05:36.523Z,56.70
2022-10-12T15:08:09.165Z,56.70
2022-10-12T15:10:38.010Z,56.80
2022-10-12T15:13:04.958Z,56.60
2022-10-12T15:15:40.757Z,57.60
2022-10-12T15:18:09.691Z,57.00
2022-10-12T15:20:37.432Z,57.10
2022-10-12T15:23:04.859Z,57.10
2022-10-12T15:25:53.514Z,57.90
2022-10-12T15:28:21.589Z,57.30
2022-10-12T15:31:15.420Z,57.50
2022-10-12T15:33:35.835Z,57.50
2022-10-12T15:36:02.826Z,57.60
2022-10-12T15:38:30.072Z,57.60
2022-10-12T15:43:41.923Z,57.80
2022-10-12T15:46:11.853Z,57.80
2022-10-12T15:48:40.226Z,57.70
2022-10-12T15:51:20.687Z,57.60
2022-10-12T15:53:47.359Z,57.50
2022-10-12T15:56:15.527Z,57.60
2022-10-12T15:58:42.605Z,57.60
2022-10-12T16:01:14.088Z,57.60
2022-10-12T16:03:41.543Z,57.60
2022-10-12T16:06:08.834Z,57.60
2022-10-12T16:08:36.049Z,57.70
2022-10-12T16:11:04.380Z,57.70
2022-10-12T16:13:31.261Z,57.70
2022-10-12T16:15:58.097Z,57.80
2022-10-12T16:18:24.929Z,57.90
2022-10-12T16:20:53.961Z,58.10
2022-10-12T16:23:33.703Z,58.10
2022-10-12T16:26:03.914Z,58.20
2022-10-12T16:28:30.757Z,58.40
2022-10-12T16:30:57.653Z,58.50
2022-10-12T16:33:25.534Z,58.60
2022-10-12T16:35:52.480Z,58.60
2022-10-12T16:38:20.336Z,58.70
2022-10-12T16:40:49.100Z,58.90
2022-10-12T16:43:15.857Z,59.00
2022-10-12T16:45:42.829Z,59.00
2022-10-12T16:48:09.695Z,59.20
2022-10-12T16:50:40.529Z,59.20
2022-10-12T16:53:07.863Z,59.20
2022-10-12T16:55:37.804Z,59.30
2022-10-12T16:58:04.595Z,59.40
2022-10-12T17:00:34.254Z,59.50
2022-10-12T17:03:01.243Z,59.50
2022-10-12T17:05:28.123Z,59.50
2022-10-12T17:07:54.855Z,59.60
2022-10-12T17:10:21.764Z,59.70
2022-10-12T17:12:48.496Z,59.80
2022-10-12T17:15:15.363Z,59.90
2022-10-12T17:17:42.299Z,59.90
2022-10-12T17:20:09.629Z,60.10
2022-10-12T17:22:36.496Z,60.20
2022-10-12T17:25:03.556Z,60.30
2022-10-12T17:27:32.440Z,60.40
2022-10-12T17:29:59.685Z,60.70
2022-10-12T17:32:26.900Z,60.80
2022-10-12T17:34:53.711Z,60.90
2022-10-12T17:37:22.057Z,61.00
2022-10-12T17:39:50.343Z,61.20
2022-10-12T17:42:17.986Z,61.40
2022-10-12T17:44:45.056Z,61.50
2022-10-12T17:47:11.938Z,61.70
2022-10-12T17:49:38.707Z,61.70
2022-10-12T17:52:05.680Z,61.80
2022-10-12T17:54:32.990Z,61.80
2022-10-12T17:56:59.755Z,61.90
2022-10-12T17:59:26.747Z,62.10
2022-10-12T18:01:54.055Z,62.20
2022-10-12T18:04:21.123Z,62.40
2022-10-12T18:06:48.075Z,62.50
2022-10-12T18:09:15.154Z,62.70
2022-10-12T18:11:41.949Z,62.90
2022-10-12T18:14:09.697Z,63.00
2022-10-12T18:16:46.307Z,63.20
2022-10-12T18:19:13.503Z,63.30
2022-10-12T18:21:40.581Z,63.40
2022-10-12T18:24:17.072Z,63.60
2022-10-12T18:26:46.537Z,63.90
2022-10-12T18:29:13.294Z,64.00
2022-10-12T18:31:43.123Z,64.10
2022-10-12T18:34:09.965Z,64.40
2022-10-12T18:36:36.768Z,64.30
2022-10-12T18:39:07.091Z,64.50
2022-10-12T18:41:34.162Z,64.80
2022-10-12T18:44:02.603Z,64.80
2022-10-12T18:46:31.913Z,65.00
2022-10-12T18:48:59.159Z,65.20
2022-10-12T18:51:31.318Z,65.30
2022-10-12T18:54:01.261Z,65.40
2022-10-12T18:56:29.235Z,65.50
2022-10-12T18:58:57.661Z,65.60
2022-10-12T19:01:26.102Z,65.70
2022-10-12T19:03:55.707Z,65.80
2022-10-12T19:06:26.922Z,66.00
2022-10-12T19:08:56.069Z,65.90
2022-10-12T19:11:24.336Z,66.00
2022-10-12T19:13:57.586Z,66.20
2022-10-12T19:16:24.604Z,66.30
2022-10-12T19:18:59.625Z,66.40
2022-10-12T19:21:27.318Z,66.50
2022-10-12T19:23:56.533Z,66.50
2022-10-12T19:26:28.927Z,66.50
2022-10-12T19:28:56.769Z,66.50
2022-10-12T19:31:27.051Z,66.40
2022-10-12T19:33:59.223Z,66.50
2022-10-12T19:36:26.788Z,66.70
2022-10-12T19:38:57.904Z,66.80
2022-10-12T19:41:28.699Z,67.00
2022-10-12T19:43:56.526Z,67.00
2022-10-12T19:46:23.693Z,67.20
2022-10-12T19:48:52.502Z,67.20
2022-10-12T19:51:21.374Z,67.30
2022-10-12T19:53:51.354Z,67.50
2022-10-12T19:56:20.920Z,67.50
2022-10-12T19:58:49.209Z,67.50
2022-10-12T20:01:27.092Z,67.60
2022-10-12T20:03:54.284Z,67.70
2022-10-12T20:06:23.726Z,67.70
2022-10-12T20:08:52.001Z,67.90
2022-10-12T20:11:24.693Z,68.80
2022-10-12T20:13:52.489Z,68.00
2022-10-12T20:16:20.627Z,68.10
2022-10-12T20:18:47.793Z,68.20
2022-10-12T20:21:18.905Z,68.30
2022-10-12T20:23:45.995Z,68.40
2022-10-12T20:26:16.095Z,68.40
2022-10-12T20:28:43.247Z,68.60
2022-10-12T20:31:10.442Z,68.60
2022-10-12T20:33:39.109Z,68.70
2022-10-12T20:36:18.493Z,68.80
2022-10-12T20:38:45.221Z,68.90
2022-10-12T20:41:14.143Z,68.90
2022-10-12T20:43:40.859Z,69.10
2022-10-12T20:46:11.837Z,69.10
2022-10-12T20:48:40.065Z,69.20
2022-10-12T20:51:08.772Z,69.30
2022-10-12T20:53:35.910Z,69.40
2022-10-12T20:56:05.760Z,69.30
2022-10-12T20:58:32.794Z,70.30
2022-10-12T21:01:08.294Z,70.30
2022-10-12T21:03:38.202Z,69.60
2022-10-12T21:06:10.789Z,69.50
2022-10-12T21:08:38.190Z,69.70
2022-10-12T21:11:05.789Z,69.70
2022-10-12T21:13:34.782Z,69.70
2022-10-12T21:16:01.635Z,69.80
2022-10-12T21:18:32.770Z,69.80
2022-10-12T21:21:05.401Z,69.80
2022-10-12T21:23:32.250Z,69.90
2022-10-12T21:25:59.078Z,69.90
2022-10-12T21:28:26.034Z,69.90
2022-10-12T21:30:52.883Z,70.00
2022-10-12T21:33:19.762Z,70.00
2022-10-12T21:35:46.655Z,70.00
2022-10-12T21:38:13.367Z,70.00
2022-10-12T21:40:40.257Z,70.20
2022-10-12T21:43:07.055Z,70.20
2022-10-12T21:45:33.877Z,70.20
2022-10-12T21:48:00.784Z,70.30
2022-10-12T21:50:27.995Z,70.30
2022-10-12T21:52:59.412Z,70.40
2022-10-12T21:55:27.330Z,70.40
2022-10-12T21:57:54.108Z,70.40
2022-10-12T22:00:21.025Z,70.50
2022-10-12T22:02:47.933Z,70.60
2022-10-12T22:05:14.799Z,70.60
2022-10-12T22:07:42.944Z,70.60
2022-10-12T22:10:12.789Z,70.70
2022-10-12T22:12:40.232Z,70.80
2022-10-12T22:15:10.469Z,70.80
2022-10-12T22:17:37.889Z,70.80
2022-10-12T22:20:05.225Z,70.90
2022-10-12T22:22:31.915Z,70.90
2022-10-12T22:24:58.625Z,71.00
2022-10-12T22:27:25.336Z,71.00
2022-10-12T22:29:55.070Z,71.20
2022-10-12T22:32:21.972Z,71.20
2022-10-12T22:34:48.767Z,71.20
2022-10-12T22:37:15.466Z,71.40
2022-10-12T22:39:42.184Z,71.20
2022-10-12T22:42:09.146Z,71.40
2022-10-12T22:44:35.884Z,71.40
2022-10-12T22:47:05.549Z,71.40
2022-10-12T22:49:32.309Z,71.40
2022-10-12T22:51:59.004Z,71.50
2022-10-12T22:54:25.711Z,71.50
2022-10-12T22:56:52.423Z,71.50
2022-10-12T22:59:21.449Z,71.50
2022-10-12T23:01:48.416Z,71.60
2022-10-12T23:04:15.203Z,71.70
2022-10-12T23:06:42.088Z,71.70
2022-10-12T23:09:11.842Z,71.70
2022-10-12T23:11:38.552Z,71.80
2022-10-12T23:14:07.998Z,72.80
2022-10-12T23:16:34.759Z,71.90
2022-10-12T23:19:04.105Z,72.00
2022-10-12T23:21:32.319Z,72.10
2022-10-12T23:24:00.421Z,72.10
2022-10-12T23:26:29.249Z,72.10
2022-10-12T23:28:56.280Z,72.20
2022-10-12T23:31:25.690Z,72.10
2022-10-12T23:34:01.233Z,72.20
2022-10-12T23:36:28.304Z,72.30
2022-10-12T23:38:55.223Z,72.30
2022-10-12T23:41:22.109Z,72.40
2022-10-12T23:43:51.893Z,72.30
2022-10-12T23:46:21.895Z,72.40
2022-10-12T23:48:51.885Z,72.40
2022-10-12T23:51:19.628Z,72.50
2022-10-12T23:53:49.566Z,72.40
2022-10-12T23:56:19.397Z,72.60
2022-10-12T23:58:46.160Z,72.60
